sensor_id;sensor_type;location;lat;lon;timestamp;pressure;altitude;pressure_sealevel;temperature;humidity
39793;BME280;26080;42.264;24.536;2023-02-19T00:00:59;99503.66;;;7.64;78.66
39793;BME280;26080;42.264;24.536;2023-02-19T00:03:26;99498.44;;;7.64;78.50
39793;BME280;26080;42.264;24.536;2023-02-19T00:05:51;99483.00;;;7.58;79.15
39793;BME280;26080;42.264;24.536;2023-02-19T00:08:17;99493.97;;;7.67;78.50
39793;BME280;26080;42.264;24.536;2023-02-19T00:10:42;99500.06;;;7.68;77.44
39793;BME280;26080;42.264;24.536;2023-02-19T00:13:08;99493.84;;;7.72;76.76
39793;BME280;26080;42.264;24.536;2023-02-19T00:15:33;99494.41;;;7.55;77.84
39793;BME280;26080;42.264;24.536;2023-02-19T00:17:59;99460.81;;;7.18;79.76
39793;BME280;26080;42.264;24.536;2023-02-19T00:20:25;99476.91;;;7.31;80.51
39793;BME280;26080;42.264;24.536;2023-02-19T00:22:50;99486.19;;;7.39;79.79
39793;BME280;26080;42.264;24.536;2023-02-19T00:25:16;99445.28;;;7.15;80.54
39793;BME280;26080;42.264;24.536;2023-02-19T00:27:41;99481.59;;;7.48;80.06
39793;BME280;26080;42.264;24.536;2023-02-19T00:30:07;99479.78;;;7.50;80.63
39793;BME280;26080;42.264;24.536;2023-02-19T00:32:33;99477.84;;;7.56;80.15
39793;BME280;26080;42.264;24.536;2023-02-19T00:34:58;99471.88;;;7.53;80.19
39793;BME280;26080;42.264;24.536;2023-02-19T00:37:24;99470.25;;;7.49;79.33
39793;BME280;26080;42.264;24.536;2023-02-19T00:39:49;99471.28;;;7.45;78.90
39793;BME280;26080;42.264;24.536;2023-02-19T00:42:15;99463.63;;;7.38;79.37
39793;BME280;26080;42.264;24.536;2023-02-19T00:44:40;99467.25;;;7.34;80.03
39793;BME280;26080;42.264;24.536;2023-02-19T00:47:05;99426.09;;;7.18;80.14
39793;BME280;26080;42.264;24.536;2023-02-19T00:49:31;99461.13;;;7.35;79.91
39793;BME280;26080;42.264;24.536;2023-02-19T00:51:56;99467.34;;;7.31;80.34
39793;BME280;26080;42.264;24.536;2023-02-19T00:54:22;99458.59;;;7.06;82.33
39793;BME280;26080;42.264;24.536;2023-02-19T00:56:49;99428.94;;;6.82;83.77
39793;BME280;26080;42.264;24.536;2023-02-19T00:59:14;99424.50;;;6.86;83.74
39793;BME280;26080;42.264;24.536;2023-02-19T01:01:41;99451.03;;;6.97;83.98
39793;BME280;26080;42.264;24.536;2023-02-19T01:04:08;99430.81;;;6.77;84.11
39793;BME280;26080;42.264;24.536;2023-02-19T01:06:34;99429.50;;;6.92;83.51
39793;BME280;26080;42.264;24.536;2023-02-19T01:09:00;99446.56;;;7.02;83.60
39793;BME280;26080;42.264;24.536;2023-02-19T01:11:25;99456.03;;;7.04;83.35
39793;BME280;26080;42.264;24.536;2023-02-19T01:13:52;99463.16;;;6.98;83.56
39793;BME280;26080;42.264;24.536;2023-02-19T01:16:21;99440.63;;;6.97;84.06
39793;BME280;26080;42.264;24.536;2023-02-19T01:18:49;99449.38;;;6.94;83.17
39793;BME280;26080;42.264;24.536;2023-02-19T01:21:17;99447.69;;;6.93;84.39
39793;BME280;26080;42.264;24.536;2023-02-19T01:23:43;99443.59;;;7.14;82.91
39793;BME280;26080;42.264;24.536;2023-02-19T01:26:15;99430.25;;;7.23;82.46
39793;BME280;26080;42.264;24.536;2023-02-19T01:28:41;99407.94;;;7.16;81.81
39793;BME280;26080;42.264;24.536;2023-02-19T01:31:10;99428.66;;;7.19;82.52
39793;BME280;26080;42.264;24.536;2023-02-19T01:33:36;99427.53;;;7.26;82.09
39793;BME280;26080;42.264;24.536;2023-02-19T01:36:03;99386.31;;;7.12;82.30
39793;BME280;26080;42.264;24.536;2023-02-19T01:38:29;99405.84;;;7.27;82.62
39793;BME280;26080;42.264;24.536;2023-02-19T01:40:59;99416.31;;;7.24;83.10
39793;BME280;26080;42.264;24.536;2023-02-19T01:43:26;99398.75;;;7.31;82.49
39793;BME280;26080;42.264;24.536;2023-02-19T01:45:52;99402.22;;;7.31;82.47
39793;BME280;26080;42.264;24.536;2023-02-19T01:48:24;99407.03;;;7.43;81.40
39793;BME280;26080;42.264;24.536;2023-02-19T01:51:13;99410.63;;;7.39;81.73
39793;BME280;26080;42.264;24.536;2023-02-19T01:53:45;99384.84;;;7.32;82.18
39793;BME280;26080;42.264;24.536;2023-02-19T01:56:13;99413.72;;;7.51;80.88
39793;BME280;26080;42.264;24.536;2023-02-19T01:58:41;99398.94;;;7.51;80.60
39793;BME280;26080;42.264;24.536;2023-02-19T02:01:07;99401.81;;;7.43;81.24
39793;BME280;26080;42.264;24.536;2023-02-19T02:03:34;99405.00;;;7.25;82.38
39793;BME280;26080;42.264;24.536;2023-02-19T02:08:34;99414.59;;;6.97;84.22
39793;BME280;26080;42.264;24.536;2023-02-19T02:11:18;99415.50;;;6.96;84.58
39793;BME280;26080;42.264;24.536;2023-02-19T02:13:44;99417.41;;;6.91;85.24
39793;BME280;26080;42.264;24.536;2023-02-19T02:18:58;99418.38;;;6.57;87.15
39793;BME280;26080;42.264;24.536;2023-02-19T02:21:34;99416.50;;;6.62;87.44
39793;BME280;26080;42.264;24.536;2023-02-19T02:24:23;99426.78;;;6.67;87.07
39793;BME280;26080;42.264;24.536;2023-02-19T02:32:37;99438.22;;;6.91;85.06
39793;BME280;26080;42.264;24.536;2023-02-19T02:35:09;99432.75;;;6.98;84.87
39793;BME280;26080;42.264;24.536;2023-02-19T02:37:38;99431.69;;;7.05;84.62
39793;BME280;26080;42.264;24.536;2023-02-19T02:40:06;99427.06;;;7.15;83.79
39793;BME280;26080;42.264;24.536;2023-02-19T02:42:33;99437.38;;;7.18;83.66
39793;BME280;26080;42.264;24.536;2023-02-19T02:45:33;99441.84;;;7.15;83.49
39793;BME280;26080;42.264;24.536;2023-02-19T02:53:49;99401.66;;;6.94;82.96
39793;BME280;26080;42.264;24.536;2023-02-19T02:56:36;99442.69;;;7.15;82.94
39793;BME280;26080;42.264;24.536;2023-02-19T02:59:04;99442.81;;;7.10;82.56
39793;BME280;26080;42.264;24.536;2023-02-19T03:01:48;99445.09;;;7.21;82.00
39793;BME280;26080;42.264;24.536;2023-02-19T03:07:29;99447.38;;;7.04;83.01
39793;BME280;26080;42.264;24.536;2023-02-19T03:09:58;99463.41;;;6.90;83.57
39793;BME280;26080;42.264;24.536;2023-02-19T03:12:28;99433.25;;;6.53;83.63
39793;BME280;26080;42.264;24.536;2023-02-19T03:15:15;99484.78;;;6.70;84.22
39793;BME280;26080;42.264;24.536;2023-02-19T03:18:02;99495.63;;;6.24;86.36
39793;BME280;26080;42.264;24.536;2023-02-19T03:20:50;99481.28;;;6.09;87.07
39793;BME280;26080;42.264;24.536;2023-02-19T03:23:18;99476.50;;;5.94;87.53
39793;BME280;26080;42.264;24.536;2023-02-19T03:25:46;99493.38;;;6.10;86.45
39793;BME280;26080;42.264;24.536;2023-02-19T03:28:46;99483.72;;;6.15;85.46
39793;BME280;26080;42.264;24.536;2023-02-19T03:31:32;99492.00;;;6.30;85.00
39793;BME280;26080;42.264;24.536;2023-02-19T03:34:03;99490.25;;;6.63;83.66
39793;BME280;26080;42.264;24.536;2023-02-19T03:36:37;99456.50;;;7.17;79.67
39793;BME280;26080;42.264;24.536;2023-02-19T03:39:06;99472.38;;;8.15;76.00
39793;BME280;26080;42.264;24.536;2023-02-19T03:44:46;99479.38;;;8.65;72.33
39793;BME280;26080;42.264;24.536;2023-02-19T03:47:25;99470.84;;;9.06;70.59
39793;BME280;26080;42.264;24.536;2023-02-19T04:02:52;99452.06;;;11.02;61.89
39793;BME280;26080;42.264;24.536;2023-02-19T04:05:21;99410.13;;;11.02;60.34
39793;BME280;26080;42.264;24.536;2023-02-19T04:07:52;99446.34;;;11.30;59.89
39793;BME280;26080;42.264;24.536;2023-02-19T04:10:19;99455.00;;;11.32;59.77
39793;BME280;26080;42.264;24.536;2023-02-19T04:12:53;99435.91;;;11.11;59.87
39793;BME280;26080;42.264;24.536;2023-02-19T04:15:24;99456.72;;;11.14;60.53
39793;BME280;26080;42.264;24.536;2023-02-19T04:17:56;99472.94;;;11.22;59.83
39793;BME280;26080;42.264;24.536;2023-02-19T04:20:24;99459.81;;;11.22;60.02
39793;BME280;26080;42.264;24.536;2023-02-19T04:22:52;99460.97;;;11.16;60.80
39793;BME280;26080;42.264;24.536;2023-02-19T04:25:17;99457.72;;;11.11;61.55
39793;BME280;26080;42.264;24.536;2023-02-19T04:27:43;99460.19;;;10.95;62.12
39793;BME280;26080;42.264;24.536;2023-02-19T04:30:11;99472.03;;;10.85;62.50
39793;BME280;26080;42.264;24.536;2023-02-19T04:32:37;99462.09;;;10.73;63.30
39793;BME280;26080;42.264;24.536;2023-02-19T04:35:02;99442.41;;;10.64;63.64
39793;BME280;26080;42.264;24.536;2023-02-19T04:37:28;99455.16;;;10.91;62.49
39793;BME280;26080;42.264;24.536;2023-02-19T04:39:53;99458.22;;;11.01;62.31
39793;BME280;26080;42.264;24.536;2023-02-19T04:42:19;99455.97;;;11.12;61.19
39793;BME280;26080;42.264;24.536;2023-02-19T04:44:44;99466.94;;;11.01;61.47
39793;BME280;26080;42.264;24.536;2023-02-19T04:47:10;99464.72;;;10.92;62.44
39793;BME280;26080;42.264;24.536;2023-02-19T04:49:35;99469.25;;;10.88;62.51
39793;BME280;26080;42.264;24.536;2023-02-19T04:52:01;99460.13;;;10.78;61.98
39793;BME280;26080;42.264;24.536;2023-02-19T04:54:26;99468.06;;;10.77;62.84
39793;BME280;26080;42.264;24.536;2023-02-19T04:56:52;99490.53;;;10.62;63.81
39793;BME280;26080;42.264;24.536;2023-02-19T04:59:17;99512.66;;;10.55;64.11
39793;BME280;26080;42.264;24.536;2023-02-19T05:01:43;99519.09;;;10.48;64.80
39793;BME280;26080;42.264;24.536;2023-02-19T05:04:08;99535.19;;;10.38;65.40
39793;BME280;26080;42.264;24.536;2023-02-19T05:06:33;99553.41;;;10.21;66.36
39793;BME280;26080;42.264;24.536;2023-02-19T05:08:59;99565.53;;;10.02;67.56
39793;BME280;26080;42.264;24.536;2023-02-19T05:11:24;99557.38;;;9.20;68.19
39793;BME280;26080;42.264;24.536;2023-02-19T05:13:50;99562.78;;;8.43;71.93
39793;BME280;26080;42.264;24.536;2023-02-19T05:16:17;99579.38;;;7.87;75.33
39793;BME280;26080;42.264;24.536;2023-02-19T05:18:44;99559.97;;;7.41;78.50
39793;BME280;26080;42.264;24.536;2023-02-19T05:21:10;99588.22;;;7.55;79.13
39793;BME280;26080;42.264;24.536;2023-02-19T05:23:40;99538.75;;;7.24;79.59
39793;BME280;26080;42.264;24.536;2023-02-19T05:26:12;99584.84;;;7.52;80.52
39793;BME280;26080;42.264;24.536;2023-02-19T05:28:38;99573.81;;;7.43;80.57
39793;BME280;26080;42.264;24.536;2023-02-19T05:31:06;99596.53;;;7.68;80.11
39793;BME280;26080;42.264;24.536;2023-02-19T05:33:32;99577.78;;;7.55;80.71
39793;BME280;26080;42.264;24.536;2023-02-19T05:35:58;99603.66;;;7.89;79.45
39793;BME280;26080;42.264;24.536;2023-02-19T05:38:24;99606.78;;;8.00;79.78
39793;BME280;26080;42.264;24.536;2023-02-19T05:40:49;99598.06;;;8.01;79.13
39793;BME280;26080;42.264;24.536;2023-02-19T05:43:16;99591.09;;;8.28;77.71
39793;BME280;26080;42.264;24.536;2023-02-19T05:45:42;99586.34;;;8.66;75.11
39793;BME280;26080;42.264;24.536;2023-02-19T05:48:08;99574.63;;;8.78;74.09
39793;BME280;26080;42.264;24.536;2023-02-19T05:50:35;99570.13;;;8.81;74.12
39793;BME280;26080;42.264;24.536;2023-02-19T05:53:02;99590.59;;;8.44;74.59
39793;BME280;26080;42.264;24.536;2023-02-19T05:55:29;99611.31;;;8.48;75.44
39793;BME280;26080;42.264;24.536;2023-02-19T05:57:55;99618.09;;;8.27;77.00
39793;BME280;26080;42.264;24.536;2023-02-19T06:00:21;99612.13;;;8.24;77.22
39793;BME280;26080;42.264;24.536;2023-02-19T06:02:46;99624.03;;;8.05;77.79
39793;BME280;26080;42.264;24.536;2023-02-19T06:05:12;99632.25;;;7.92;78.87
39793;BME280;26080;42.264;24.536;2023-02-19T06:07:38;99630.00;;;7.82;80.05
39793;BME280;26080;42.264;24.536;2023-02-19T06:10:05;99641.28;;;7.81;81.06
39793;BME280;26080;42.264;24.536;2023-02-19T06:12:31;99640.06;;;7.92;80.89
39793;BME280;26080;42.264;24.536;2023-02-19T06:14:57;99649.09;;;7.82;81.77
39793;BME280;26080;42.264;24.536;2023-02-19T06:17:22;99654.31;;;7.82;82.37
39793;BME280;26080;42.264;24.536;2023-02-19T06:19:48;99636.91;;;7.83;82.00
39793;BME280;26080;42.264;24.536;2023-02-19T06:22:14;99662.56;;;7.96;81.84
39793;BME280;26080;42.264;24.536;2023-02-19T06:24:40;99659.59;;;8.07;81.74
39793;BME280;26080;42.264;24.536;2023-02-19T06:27:06;99658.31;;;8.20;81.65
39793;BME280;26080;42.264;24.536;2023-02-19T06:29:32;99637.31;;;8.25;81.75
39793;BME280;26080;42.264;24.536;2023-02-19T06:31:58;99653.00;;;8.51;80.24
39793;BME280;26080;42.264;24.536;2023-02-19T06:34:24;99643.69;;;8.69;80.12
39793;BME280;26080;42.264;24.536;2023-02-19T06:36:50;99657.19;;;8.82;79.85
39793;BME280;26080;42.264;24.536;2023-02-19T06:39:15;99636.72;;;8.95;78.60
39793;BME280;26080;42.264;24.536;2023-02-19T06:41:41;99658.03;;;9.07;78.88
39793;BME280;26080;42.264;24.536;2023-02-19T06:44:06;99651.56;;;9.41;75.34
39793;BME280;26080;42.264;24.536;2023-02-19T06:46:32;99663.63;;;9.68;73.42
39793;BME280;26080;42.264;24.536;2023-02-19T06:48:58;99643.28;;;10.20;69.50
39793;BME280;26080;42.264;24.536;2023-02-19T06:51:24;99633.03;;;10.78;65.60
39793;BME280;26080;42.264;24.536;2023-02-19T06:53:51;99651.72;;;11.10;65.15
39793;BME280;26080;42.264;24.536;2023-02-19T06:56:25;99651.44;;;11.36;63.37
39793;BME280;26080;42.264;24.536;2023-02-19T06:58:53;99644.97;;;11.82;61.65
39793;BME280;26080;42.264;24.536;2023-02-19T07:01:19;99651.13;;;12.00;60.93
39793;BME280;26080;42.264;24.536;2023-02-19T07:03:44;99633.38;;;12.05;61.33
39793;BME280;26080;42.264;24.536;2023-02-19T07:06:10;99647.91;;;12.12;60.80
39793;BME280;26080;42.264;24.536;2023-02-19T07:08:35;99649.78;;;12.28;60.64
39793;BME280;26080;42.264;24.536;2023-02-19T07:11:01;99647.00;;;12.31;60.33
39793;BME280;26080;42.264;24.536;2023-02-19T07:13:26;99654.94;;;12.48;60.23
39793;BME280;26080;42.264;24.536;2023-02-19T07:16:00;99657.00;;;12.59;60.36
39793;BME280;26080;42.264;24.536;2023-02-19T07:18:26;99627.41;;;12.55;59.98
39793;BME280;26080;42.264;24.536;2023-02-19T07:20:52;99620.94;;;12.62;59.30
39793;BME280;26080;42.264;24.536;2023-02-19T07:23:17;99646.13;;;12.84;60.20
39793;BME280;26080;42.264;24.536;2023-02-19T07:25:43;99634.47;;;12.89;59.78
39793;BME280;26080;42.264;24.536;2023-02-19T07:28:08;99638.22;;;13.01;59.18
39793;BME280;26080;42.264;24.536;2023-02-19T07:30:34;99630.19;;;13.04;58.88
39793;BME280;26080;42.264;24.536;2023-02-19T07:32:59;99643.06;;;13.26;59.00
39793;BME280;26080;42.264;24.536;2023-02-19T07:35:25;99637.63;;;13.46;57.23
39793;BME280;26080;42.264;24.536;2023-02-19T07:37:50;99635.75;;;13.48;57.15
39793;BME280;26080;42.264;24.536;2023-02-19T07:40:16;99640.63;;;13.87;55.36
39793;BME280;26080;42.264;24.536;2023-02-19T07:42:41;99632.63;;;13.89;55.96
39793;BME280;26080;42.264;24.536;2023-02-19T07:45:07;99597.97;;;13.81;55.82
39793;BME280;26080;42.264;24.536;2023-02-19T07:47:33;99619.72;;;14.00;56.43
39793;BME280;26080;42.264;24.536;2023-02-19T07:49:58;99624.28;;;13.97;54.93
39793;BME280;26080;42.264;24.536;2023-02-19T07:52:23;99637.13;;;14.03;56.17
39793;BME280;26080;42.264;24.536;2023-02-19T07:54:49;99605.28;;;13.91;57.17
39793;BME280;26080;42.264;24.536;2023-02-19T07:57:14;99612.66;;;14.62;52.94
39793;BME280;26080;42.264;24.536;2023-02-19T07:59:40;99622.41;;;14.90;52.83
39793;BME280;26080;42.264;24.536;2023-02-19T08:02:16;99608.88;;;15.10;52.05
39793;BME280;26080;42.264;24.536;2023-02-19T08:05:01;99571.94;;;15.10;51.09
39793;BME280;26080;42.264;24.536;2023-02-19T08:07:34;99601.50;;;15.30;50.32
39793;BME280;26080;42.264;24.536;2023-02-19T08:10:01;99606.97;;;15.41;49.51
39793;BME280;26080;42.264;24.536;2023-02-19T08:12:47;99598.66;;;15.47;50.55
39793;BME280;26080;42.264;24.536;2023-02-19T08:15:37;99612.53;;;15.51;48.34
39793;BME280;26080;42.264;24.536;2023-02-19T08:18:02;99580.03;;;15.50;48.87
39793;BME280;26080;42.264;24.536;2023-02-19T08:20:28;99594.72;;;15.54;50.17
39793;BME280;26080;42.264;24.536;2023-02-19T08:22:53;99589.31;;;15.56;49.51
39793;BME280;26080;42.264;24.536;2023-02-19T08:25:19;99581.31;;;15.72;49.17
39793;BME280;26080;42.264;24.536;2023-02-19T08:27:44;99563.59;;;15.45;49.60
39793;BME280;26080;42.264;24.536;2023-02-19T08:30:10;99598.09;;;15.56;48.57
39793;BME280;26080;42.264;24.536;2023-02-19T08:32:36;99589.63;;;15.65;49.22
39793;BME280;26080;42.264;24.536;2023-02-19T08:35:01;99592.44;;;15.77;48.57
39793;BME280;26080;42.264;24.536;2023-02-19T08:37:27;99566.22;;;15.74;49.07
39793;BME280;26080;42.264;24.536;2023-02-19T08:39:52;99581.69;;;15.80;49.14
39793;BME280;26080;42.264;24.536;2023-02-19T08:42:18;99589.78;;;15.91;48.20
39793;BME280;26080;42.264;24.536;2023-02-19T08:44:43;99589.47;;;15.95;48.82
39793;BME280;26080;42.264;24.536;2023-02-19T08:47:08;99579.47;;;15.86;48.28
39793;BME280;26080;42.264;24.536;2023-02-19T08:49:34;99574.34;;;15.97;48.64
39793;BME280;26080;42.264;24.536;2023-02-19T08:51:59;99577.25;;;16.07;49.20
39793;BME280;26080;42.264;24.536;2023-02-19T08:54:25;99567.75;;;16.05;48.31
39793;BME280;26080;42.264;24.536;2023-02-19T08:56:50;99576.88;;;15.99;47.79
39793;BME280;26080;42.264;24.536;2023-02-19T08:59:16;99566.38;;;16.12;48.57
39793;BME280;26080;42.264;24.536;2023-02-19T09:01:43;99574.66;;;16.20;48.05
39793;BME280;26080;42.264;24.536;2023-02-19T09:04:11;99568.09;;;16.25;47.02
39793;BME280;26080;42.264;24.536;2023-02-19T09:06:38;99557.88;;;16.34;47.48
39793;BME280;26080;42.264;24.536;2023-02-19T09:09:03;99554.06;;;16.38;46.78
39793;BME280;26080;42.264;24.536;2023-02-19T09:11:29;99551.53;;;16.36;47.30
39793;BME280;26080;42.264;24.536;2023-02-19T09:13:55;99520.44;;;16.27;47.34
39793;BME280;26080;42.264;24.536;2023-02-19T09:16:21;99541.72;;;16.51;46.93
39793;BME280;26080;42.264;24.536;2023-02-19T09:18:47;99537.28;;;16.64;46.68
39793;BME280;26080;42.264;24.536;2023-02-19T09:21:13;99546.63;;;16.70;46.53
39793;BME280;26080;42.264;24.536;2023-02-19T09:23:38;99537.75;;;16.71;46.07
39793;BME280;26080;42.264;24.536;2023-02-19T09:26:05;99543.47;;;16.90;46.20
39793;BME280;26080;42.264;24.536;2023-02-19T09:28:35;99532.25;;;16.86;45.87
39793;BME280;26080;42.264;24.536;2023-02-19T09:31:05;99532.25;;;16.86;45.83
39793;BME280;26080;42.264;24.536;2023-02-19T09:33:31;99536.66;;;16.99;46.05
39793;BME280;26080;42.264;24.536;2023-02-19T09:36:00;99526.06;;;17.11;45.57
39793;BME280;26080;42.264;24.536;2023-02-19T09:38:26;99522.28;;;17.15;45.72
39793;BME280;26080;42.264;24.536;2023-02-19T09:40:54;99500.25;;;17.15;44.73
39793;BME280;26080;42.264;24.536;2023-02-19T09:43:22;99522.56;;;17.24;44.89
39793;BME280;26080;42.264;24.536;2023-02-19T09:46:00;99525.19;;;17.36;45.60
39793;BME280;26080;42.264;24.536;2023-02-19T09:48:27;99522.03;;;17.31;45.46
39793;BME280;26080;42.264;24.536;2023-02-19T09:50:53;99518.44;;;17.32;45.01
39793;BME280;26080;42.264;24.536;2023-02-19T09:53:24;99498.47;;;17.39;45.46
39793;BME280;26080;42.264;24.536;2023-02-19T09:55:51;99500.94;;;17.42;44.80
39793;BME280;26080;42.264;24.536;2023-02-19T10:00:55;99499.69;;;17.59;43.60
39793;BME280;26080;42.264;24.536;2023-02-19T10:03:27;99507.91;;;17.67;43.89
39793;BME280;26080;42.264;24.536;2023-02-19T10:06:06;99502.94;;;17.75;43.53
39793;BME280;26080;42.264;24.536;2023-02-19T10:08:33;99489.31;;;17.69;43.33
39793;BME280;26080;42.264;24.536;2023-02-19T10:11:01;99489.88;;;17.85;42.81
39793;BME280;26080;42.264;24.536;2023-02-19T10:13:35;99484.63;;;17.96;42.53
39793;BME280;26080;42.264;24.536;2023-02-19T10:16:04;99461.81;;;17.94;43.17
39793;BME280;26080;42.264;24.536;2023-02-19T10:18:41;99479.50;;;18.17;43.99
39793;BME280;26080;42.264;24.536;2023-02-19T10:21:19;99466.31;;;18.40;43.39
39793;BME280;26080;42.264;24.536;2023-02-19T10:23:46;99467.41;;;18.37;42.32
39793;BME280;26080;42.264;24.536;2023-02-19T10:26:13;99459.09;;;18.53;41.89
39793;BME280;26080;42.264;24.536;2023-02-19T10:28:38;99447.03;;;18.60;42.28
39793;BME280;26080;42.264;24.536;2023-02-19T10:31:14;99451.16;;;18.75;41.90
39793;BME280;26080;42.264;24.536;2023-02-19T10:33:51;99448.03;;;18.81;41.60
39793;BME280;26080;42.264;24.536;2023-02-19T10:36:33;99439.13;;;18.82;41.05
39793;BME280;26080;42.264;24.536;2023-02-19T10:39:01;99432.22;;;18.91;41.84
39793;BME280;26080;42.264;24.536;2023-02-19T10:41:27;99410.19;;;18.68;41.84
39793;BME280;26080;42.264;24.536;2023-02-19T10:44:10;99405.94;;;18.77;41.35
39793;BME280;26080;42.264;24.536;2023-02-19T10:46:46;99419.56;;;18.83;41.48
39793;BME280;26080;42.264;24.536;2023-02-19T10:49:26;99415.72;;;18.76;42.30
39793;BME280;26080;42.264;24.536;2023-02-19T10:51:55;99416.09;;;18.83;42.08
39793;BME280;26080;42.264;24.536;2023-02-19T10:54:26;99407.03;;;18.85;41.29
39793;BME280;26080;42.264;24.536;2023-02-19T10:59:51;99397.00;;;19.00;40.64
39793;BME280;26080;42.264;24.536;2023-02-19T11:02:18;99394.78;;;19.16;40.62
39793;BME280;26080;42.264;24.536;2023-02-19T11:05:14;99368.75;;;19.10;39.73
39793;BME280;26080;42.264;24.536;2023-02-19T11:07:51;99374.22;;;19.30;39.46
39793;BME280;26080;42.264;24.536;2023-02-19T11:10:42;99362.34;;;19.45;40.11
39793;BME280;26080;42.264;24.536;2023-02-19T11:13:13;99368.28;;;19.37;38.39
39793;BME280;26080;42.264;24.536;2023-02-19T11:15:40;99324.50;;;19.32;38.92
39793;BME280;26080;42.264;24.536;2023-02-19T11:20:50;99348.06;;;19.57;38.68
39793;BME280;26080;42.264;24.536;2023-02-19T11:23:24;99307.13;;;19.28;37.51
39793;BME280;26080;42.264;24.536;2023-02-19T11:25:52;99335.78;;;19.45;38.55
39793;BME280;26080;42.264;24.536;2023-02-19T11:31:12;99344.81;;;19.53;38.60
39793;BME280;26080;42.264;24.536;2023-02-19T11:38:47;99328.75;;;19.55;37.76
39793;BME280;26080;42.264;24.536;2023-02-19T11:54:18;99297.38;;;19.60;38.08
39793;BME280;26080;42.264;24.536;2023-02-19T11:56:49;99295.91;;;19.56;37.55
39793;BME280;26080;42.264;24.536;2023-02-19T11:59:42;99286.78;;;19.70;37.46
39793;BME280;26080;42.264;24.536;2023-02-19T12:02:38;99287.56;;;19.61;38.18
39793;BME280;26080;42.264;24.536;2023-02-19T12:16:29;99263.38;;;19.85;36.67
39793;BME280;26080;42.264;24.536;2023-02-19T12:19:19;99260.28;;;19.79;36.82
39793;BME280;26080;42.264;24.536;2023-02-19T12:22:11;99251.59;;;19.77;36.83
39793;BME280;26080;42.264;24.536;2023-02-19T12:37:13;99230.34;;;19.77;36.90
39793;BME280;26080;42.264;24.536;2023-02-19T12:39:27;99221.38;;;19.78;36.70
39793;BME280;26080;42.264;24.536;2023-02-19T12:41:57;99222.28;;;19.89;36.07
39793;BME280;26080;42.264;24.536;2023-02-19T12:44:37;99219.78;;;19.97;35.86
39793;BME280;26080;42.264;24.536;2023-02-19T12:47:06;99203.91;;;19.86;35.09
39793;BME280;26080;42.264;24.536;2023-02-19T12:49:36;99197.38;;;19.90;35.26
39793;BME280;26080;42.264;24.536;2023-02-19T12:52:16;99186.16;;;19.76;35.32
39793;BME280;26080;42.264;24.536;2023-02-19T12:54:45;99200.66;;;20.03;34.80
39793;BME280;26080;42.264;24.536;2023-02-19T12:57:26;99177.75;;;19.81;35.00
39793;BME280;26080;42.264;24.536;2023-02-19T13:02:33;99175.38;;;19.78;35.63
39793;BME280;26080;42.264;24.536;2023-02-19T13:05:10;99173.00;;;19.85;34.14
39793;BME280;26080;42.264;24.536;2023-02-19T13:07:55;99175.53;;;19.86;34.68
39793;BME280;26080;42.264;24.536;2023-02-19T13:10:30;99179.63;;;20.00;34.30
39793;BME280;26080;42.264;24.536;2023-02-19T13:13:02;99174.38;;;20.19;34.31
39793;BME280;26080;42.264;24.536;2023-02-19T13:15:34;99166.94;;;20.13;33.58
39793;BME280;26080;42.264;24.536;2023-02-19T13:18:04;99159.53;;;20.07;34.66
39793;BME280;26080;42.264;24.536;2023-02-19T13:20:38;99146.41;;;20.15;33.46
39793;BME280;26080;42.264;24.536;2023-02-19T13:29:19;99141.50;;;20.20;34.13
39793;BME280;26080;42.264;24.536;2023-02-19T13:37:15;99114.66;;;20.33;34.15
39793;BME280;26080;42.264;24.536;2023-02-19T13:39:49;99118.84;;;20.35;34.61
39793;BME280;26080;42.264;24.536;2023-02-19T13:42:35;99109.03;;;20.26;34.39
39793;BME280;26080;42.264;24.536;2023-02-19T13:45:03;99111.28;;;20.21;34.23
39793;BME280;26080;42.264;24.536;2023-02-19T13:50:36;99101.31;;;20.13;33.88
39793;BME280;26080;42.264;24.536;2023-02-19T13:58:56;99091.66;;;20.12;33.23
39793;BME280;26080;42.264;24.536;2023-02-19T14:14:54;99064.91;;;19.85;33.76
39793;BME280;26080;42.264;24.536;2023-02-19T14:17:41;99071.22;;;19.94;33.57
39793;BME280;26080;42.264;24.536;2023-02-19T14:25:30;99072.81;;;20.16;32.72
39793;BME280;26080;42.264;24.536;2023-02-19T14:33:25;99050.25;;;20.20;32.63
39793;BME280;26080;42.264;24.536;2023-02-19T14:36:31;99055.16;;;20.24;32.40
39793;BME280;26080;42.264;24.536;2023-02-19T14:39:22;99049.72;;;20.16;32.76
39793;BME280;26080;42.264;24.536;2023-02-19T14:41:51;99050.38;;;19.99;32.96
39793;BME280;26080;42.264;24.536;2023-02-19T14:44:28;99045.34;;;19.96;33.21
39793;BME280;26080;42.264;24.536;2023-02-19T14:47:15;99030.75;;;19.71;33.80
39793;BME280;26080;42.264;24.536;2023-02-19T14:49:45;99044.63;;;19.74;33.71
39793;BME280;26080;42.264;24.536;2023-02-19T14:54:52;99033.16;;;19.74;33.22
39793;BME280;26080;42.264;24.536;2023-02-19T14:57:24;99033.00;;;19.75;33.43
39793;BME280;26080;42.264;24.536;2023-02-19T15:00:19;99025.53;;;19.60;33.64
39793;BME280;26080;42.264;24.536;2023-02-19T15:02:45;99024.25;;;19.54;33.94
39793;BME280;26080;42.264;24.536;2023-02-19T15:05:37;99015.66;;;19.62;33.68
39793;BME280;26080;42.264;24.536;2023-02-19T15:08:08;99015.34;;;19.55;34.09
39793;BME280;26080;42.264;24.536;2023-02-19T15:10:37;99027.47;;;19.48;35.00
39793;BME280;26080;42.264;24.536;2023-02-19T15:13:07;99026.03;;;19.44;35.56
39793;BME280;26080;42.264;24.536;2023-02-19T15:15:37;99021.28;;;19.38;35.65
39793;BME280;26080;42.264;24.536;2023-02-19T15:18:18;99017.03;;;19.26;35.78
39793;BME280;26080;42.264;24.536;2023-02-19T15:20:46;99016.28;;;19.14;36.03
39793;BME280;26080;42.264;24.536;2023-02-19T15:23:21;99019.63;;;19.06;36.50
39793;BME280;26080;42.264;24.536;2023-02-19T15:25:49;99006.50;;;18.84;36.68
39793;BME280;26080;42.264;24.536;2023-02-19T15:28:29;99021.72;;;18.82;36.92